Time;durP1;ratioP1;P1;durP2;ratioP2;P2;SDS_P1;SDS_P2;PMS_P1;PMS_P2;Temp;Humidity;BMP_temperature;BMP_pressure;BME280_temperature;BME280_humidity;BME280_pressure;Samples;Min_cycle;Max_cycle;Signal;HPM_P1;HPM_P2
2022/12/02 00:00:54;;;;;;;;;;;22.50;92.00;;;;;;5055008;28;19919;-73
2022/12/02 00:03:23;;;;;;;;;;;22.60;91.40;;;;;;5056877;28;20280;-73
2022/12/02 00:05:52;;;;;;;;;;;22.70;92.00;;;;;;5054015;28;20010;-73
2022/12/02 00:08:28;;;;;;;;;;;22.90;92.10;;;;;;5049154;28;19913;-74
2022/12/02 00:10:56;;;;;;;;;;;23.00;91.80;;;;;;5035918;28;19908;-71
2022/12/02 00:13:22;;;;;;;;;;;23.20;91.90;;;;;;5048637;28;19912;-73
2022/12/02 00:15:51;;;;;;;;;;;23.50;91.60;;;;;;5043011;28;19935;-72
2022/12/02 00:18:18;;;;;;;;;;;23.80;91.60;;;;;;5038891;28;20349;-80
2022/12/02 00:20:45;;;;;;;;;;;23.90;91.20;;;;;;5042780;28;19947;-75
2022/12/02 00:23:12;;;;;;;;;;;24.00;90.60;;;;;;5072578;28;19978;-76
2022/12/02 00:25:39;;;;;;;;;;;24.00;90.60;;;;;;5056548;28;19944;-75
2022/12/02 00:28:05;;;;;;;;;;;24.00;90.30;;;;;;5054464;28;19908;-77
2022/12/02 00:30:32;;;;;;;;;;;24.00;90.20;;;;;;5056203;28;19918;-79
2022/12/02 00:32:59;;;;;;;;;;;24.10;89.50;;;;;;5051482;28;19921;-70
2022/12/02 00:35:25;;;;;;;;;;;24.20;90.10;;;;;;5047069;28;20024;-78
2022/12/02 00:37:52;;;;;;;;;;;24.20;89.30;;;;;;5048917;28;19991;-79
2022/12/02 00:40:19;;;;;;;;;;;24.40;90.70;;;;;;5054676;28;19937;-76
2022/12/02 00:42:46;;;;;;;;;;;24.70;90.30;;;;;;5058207;28;19912;-72
2022/12/02 00:47:58;;;;;;;;;;;25.00;88.30;;;;;;5043248;28;20414;-73
2022/12/02 00:50:25;;;;;;;;;;;25.20;87.10;;;;;;5059781;28;19909;-78
2022/12/02 00:52:52;;;;;;;;;;;25.40;88.30;;;;;;5055714;28;19912;-75
2022/12/02 00:55:19;;;;;;;;;;;25.60;86.70;;;;;;5055698;28;19917;-74
2022/12/02 00:57:46;;;;;;;;;;;25.70;85.90;;;;;;5039541;28;19931;-75
2022/12/02 01:00:13;;;;;;;;;;;25.80;86.80;;;;;;5047712;28;19959;-75
2022/12/02 01:02:39;;;;;;;;;;;25.80;86.00;;;;;;5056609;28;19967;-74
2022/12/02 01:05:06;;;;;;;;;;;25.70;86.40;;;;;;5055300;28;19947;-76
2022/12/02 01:07:33;;;;;;;;;;;25.70;85.90;;;;;;5050184;28;19917;-74
2022/12/02 01:10:00;;;;;;;;;;;25.60;86.60;;;;;;5040929;28;19963;-76
2022/12/02 01:12:26;;;;;;;;;;;25.70;86.00;;;;;;5050069;28;20035;-75
2022/12/02 01:14:53;;;;;;;;;;;25.70;84.60;;;;;;5053040;28;19995;-73
2022/12/02 01:17:20;;;;;;;;;;;25.70;84.50;;;;;;5049064;28;20334;-73
2022/12/02 01:19:46;;;;;;;;;;;26.00;84.90;;;;;;5048263;28;20133;-74
2022/12/02 01:22:13;;;;;;;;;;;25.80;83.70;;;;;;5048359;28;19909;-72
2022/12/02 01:24:40;;;;;;;;;;;25.50;85.40;;;;;;5044732;28;19924;-74
2022/12/02 01:27:06;;;;;;;;;;;25.10;85.30;;;;;;5050194;28;19923;-75
2022/12/02 01:29:33;;;;;;;;;;;24.70;84.60;;;;;;5057506;28;19913;-75
2022/12/02 01:31:59;;;;;;;;;;;24.50;85.20;;;;;;5041520;28;20004;-74
2022/12/02 01:34:26;;;;;;;;;;;24.50;86.10;;;;;;5037817;28;20011;-75
2022/12/02 01:36:53;;;;;;;;;;;24.10;88.10;;;;;;5052507;28;19912;-72
2022/12/02 01:39:19;;;;;;;;;;;23.90;89.10;;;;;;5055737;28;19972;-74
2022/12/02 01:41:46;;;;;;;;;;;24.00;87.10;;;;;;5043605;28;19912;-75
2022/12/02 01:44:13;;;;;;;;;;;24.20;85.70;;;;;;5057970;28;19916;-76
2022/12/02 01:46:41;;;;;;;;;;;24.30;86.60;;;;;;5044258;28;19979;-70
2022/12/02 01:49:07;;;;;;;;;;;24.40;86.90;;;;;;5041631;28;20335;-73
2022/12/02 01:51:35;;;;;;;;;;;24.50;87.20;;;;;;5042506;28;19913;-75
2022/12/02 01:54:02;;;;;;;;;;;24.60;86.20;;;;;;5036037;28;19920;-75
2022/12/02 01:56:29;;;;;;;;;;;24.60;85.60;;;;;;5037725;28;19912;-72
2022/12/02 01:58:55;;;;;;;;;;;24.50;86.30;;;;;;5051205;28;19912;-74
2022/12/02 02:01:23;;;;;;;;;;;24.30;86.90;;;;;;5044813;28;20184;-71
2022/12/02 02:03:50;;;;;;;;;;;24.20;88.00;;;;;;5038161;28;19917;-73
2022/12/02 02:06:16;;;;;;;;;;;24.10;88.40;;;;;;5040061;28;19913;-69
2022/12/02 02:08:43;;;;;;;;;;;24.10;88.40;;;;;;5057815;28;20243;-71
2022/12/02 02:11:10;;;;;;;;;;;24.10;88.50;;;;;;5047907;28;20301;-71
2022/12/02 02:13:37;;;;;;;;;;;24.40;88.90;;;;;;5037287;28;19915;-75
2022/12/02 02:16:03;;;;;;;;;;;25.00;86.50;;;;;;5036630;28;19982;-76
2022/12/02 02:18:34;;;;;;;;;;;25.30;86.00;;;;;;5036815;28;20201;-77
2022/12/02 02:21:01;;;;;;;;;;;25.40;85.40;;;;;;5037545;28;19913;-73
2022/12/02 02:23:28;;;;;;;;;;;25.30;85.40;;;;;;5048122;28;19955;-76
2022/12/02 02:25:57;;;;;;;;;;;25.60;85.00;;;;;;5048743;28;19923;-76
2022/12/02 02:28:24;;;;;;;;;;;25.50;84.50;;;;;;5043385;28;19917;-76
2022/12/02 02:30:52;;;;;;;;;;;25.60;85.00;;;;;;5050076;28;19920;-71
2022/12/02 02:33:21;;;;;;;;;;;25.70;84.30;;;;;;5055751;28;20691;-71
2022/12/02 02:35:48;;;;;;;;;;;26.10;84.60;;;;;;5038483;28;19927;-72
2022/12/02 02:38:17;;;;;;;;;;;26.30;84.20;;;;;;5049652;28;19959;-70
2022/12/02 02:40:43;;;;;;;;;;;26.30;85.40;;;;;;5050798;28;20381;-72
2022/12/02 02:43:11;;;;;;;;;;;26.30;86.10;;;;;;5050260;28;20233;-72
2022/12/02 02:45:38;;;;;;;;;;;26.00;86.90;;;;;;5052445;27;19974;-80
2022/12/02 02:48:07;;;;;;;;;;;26.20;86.80;;;;;;5035809;28;19909;-72
2022/12/02 02:50:34;;;;;;;;;;;26.30;85.00;;;;;;5042161;28;19916;-78
2022/12/02 02:53:01;;;;;;;;;;;26.40;86.10;;;;;;5048496;28;19913;-74
2022/12/02 02:55:30;;;;;;;;;;;26.60;83.70;;;;;;5055191;28;20383;-74
2022/12/02 02:58:06;;;;;;;;;;;26.70;85.70;;;;;;5057089;28;19946;-73
2022/12/02 03:00:32;;;;;;;;;;;27.10;83.50;;;;;;5056320;28;20545;-73
2022/12/02 03:02:59;;;;;;;;;;;27.20;83.80;;;;;;5055639;28;19951;-74
2022/12/02 03:05:25;;;;;;;;;;;27.70;83.00;;;;;;5053554;28;20565;-75
2022/12/02 03:07:52;;;;;;;;;;;28.30;81.20;;;;;;5055163;28;20285;-70
2022/12/02 03:10:19;;;;;;;;;;;28.10;81.10;;;;;;5054166;28;19909;-71
2022/12/02 03:12:46;;;;;;;;;;;28.20;82.10;;;;;;5054998;28;19999;-72
2022/12/02 03:15:13;;;;;;;;;;;28.50;80.70;;;;;;5052412;28;19925;-72
2022/12/02 03:17:39;;;;;;;;;;;29.10;78.70;;;;;;5052608;28;19916;-73
2022/12/02 03:20:06;;;;;;;;;;;28.90;78.80;;;;;;5036450;28;19916;-72
2022/12/02 03:22:33;;;;;;;;;;;28.90;79.20;;;;;;5046835;28;20019;-73
2022/12/02 03:25:01;;;;;;;;;;;29.40;76.80;;;;;;5056172;28;20363;-73
2022/12/02 03:27:27;;;;;;;;;;;29.00;76.80;;;;;;5055408;28;20250;-73
2022/12/02 03:29:54;;;;;;;;;;;29.20;74.80;;;;;;5057204;28;20018;-72
2022/12/02 03:32:21;;;;;;;;;;;29.90;73.20;;;;;;5054830;28;19954;-72
2022/12/02 03:34:49;;;;;;;;;;;30.40;72.30;;;;;;5055585;28;19920;-73
2022/12/02 03:37:16;;;;;;;;;;;30.00;71.90;;;;;;5050228;28;19913;-75
2022/12/02 03:39:43;;;;;;;;;;;30.40;71.50;;;;;;5056372;28;20285;-75
2022/12/02 03:42:10;;;;;;;;;;;30.90;69.40;;;;;;5056434;28;19923;-71
2022/12/02 03:44:36;;;;;;;;;;;31.10;69.10;;;;;;5054243;28;19936;-72
2022/12/02 03:47:03;;;;;;;;;;;31.40;68.50;;;;;;5051478;28;20787;-71
2022/12/02 03:49:32;;;;;;;;;;;31.50;68.50;;;;;;5055939;28;19912;-71
2022/12/02 03:51:58;;;;;;;;;;;31.10;70.10;;;;;;5049193;28;19913;-72
2022/12/02 03:54:25;;;;;;;;;;;32.30;68.30;;;;;;5035675;28;20641;-70
2022/12/02 03:56:52;;;;;;;;;;;33.10;66.50;;;;;;5035080;28;19909;-74
2022/12/02 03:59:28;;;;;;;;;;;33.00;66.20;;;;;;5036260;28;19950;-72
2022/12/02 04:01:54;;;;;;;;;;;32.60;65.20;;;;;;5035886;28;19909;-74
2022/12/02 04:04:21;;;;;;;;;;;31.60;66.60;;;;;;5055509;28;19929;-72
2022/12/02 04:06:48;;;;;;;;;;;31.50;68.00;;;;;;5052031;28;19964;-73
2022/12/02 04:09:14;;;;;;;;;;;30.70;68.30;;;;;;5043474;28;19935;-73
2022/12/02 04:11:41;;;;;;;;;;;31.40;66.70;;;;;;5050245;28;19917;-71
2022/12/02 04:14:07;;;;;;;;;;;32.00;65.60;;;;;;5054315;28;19921;-71
2022/12/02 04:16:34;;;;;;;;;;;31.90;64.60;;;;;;5040299;28;20998;-72
2022/12/02 04:19:01;;;;;;;;;;;32.70;63.20;;;;;;5040745;28;19921;-73
2022/12/02 04:21:28;;;;;;;;;;;32.70;63.70;;;;;;5058105;28;19996;-70
2022/12/02 04:23:54;;;;;;;;;;;32.80;63.60;;;;;;5046146;28;20723;-73
2022/12/02 04:26:21;;;;;;;;;;;32.50;62.90;;;;;;5050085;28;19977;-71
2022/12/02 04:28:47;;;;;;;;;;;31.60;63.90;;;;;;5050258;28;19912;-70
2022/12/02 04:31:14;;;;;;;;;;;31.20;64.50;;;;;;5057812;28;20664;-74
2022/12/02 04:33:41;;;;;;;;;;;31.60;63.60;;;;;;5059883;28;19999;-72
2022/12/02 04:36:08;;;;;;;;;;;32.50;62.40;;;;;;5058111;28;19960;-72
2022/12/02 04:38:34;;;;;;;;;;;32.80;61.40;;;;;;5060378;28;19912;-72
2022/12/02 04:41:01;;;;;;;;;;;32.50;62.50;;;;;;5053318;28;19917;-71
2022/12/02 04:43:27;;;;;;;;;;;32.30;62.30;;;;;;5043798;28;19921;-73
2022/12/02 04:45:54;;;;;;;;;;;31.80;63.40;;;;;;5039011;28;19908;-69
2022/12/02 04:48:21;;;;;;;;;;;31.90;63.60;;;;;;5039183;28;20430;-71
2022/12/02 04:50:47;;;;;;;;;;;32.60;63.30;;;;;;5043773;28;19978;-73
2022/12/02 04:53:14;;;;;;;;;;;33.70;61.70;;;;;;5050912;28;20590;-73
2022/12/02 04:55:42;;;;;;;;;;;34.20;60.70;;;;;;5058962;28;20015;-71
2022/12/02 04:58:09;;;;;;;;;;;35.10;59.80;;;;;;5058078;28;20373;-71
2022/12/02 05:00:35;;;;;;;;;;;34.90;60.00;;;;;;5058460;28;19916;-72
2022/12/02 05:03:02;;;;;;;;;;;34.90;58.70;;;;;;5057629;28;20034;-72
2022/12/02 05:05:28;;;;;;;;;;;35.60;57.50;;;;;;5058819;28;20125;-71
2022/12/02 05:07:55;;;;;;;;;;;35.80;58.00;;;;;;5043186;28;20274;-75
2022/12/02 05:10:22;;;;;;;;;;;35.90;57.10;;;;;;5044978;28;19927;-73
2022/12/02 05:12:50;;;;;;;;;;;35.80;56.30;;;;;;5058311;28;19916;-71
2022/12/02 05:15:19;;;;;;;;;;;34.60;59.00;;;;;;5056806;28;19912;-74
2022/12/02 05:17:45;;;;;;;;;;;34.30;58.20;;;;;;5059028;28;19909;-73
2022/12/02 05:20:12;;;;;;;;;;;34.60;57.40;;;;;;5049464;28;20007;-74
2022/12/02 05:22:40;;;;;;;;;;;34.00;58.40;;;;;;5042029;28;19974;-73
2022/12/02 05:25:07;;;;;;;;;;;32.80;60.50;;;;;;5047057;28;19916;-75
2022/12/02 05:27:34;;;;;;;;;;;31.80;62.40;;;;;;5058788;28;20005;-74
2022/12/02 05:30:01;;;;;;;;;;;31.60;62.30;;;;;;5051822;28;19909;-74
2022/12/02 05:32:27;;;;;;;;;;;31.50;61.40;;;;;;5037221;28;19913;-73
2022/12/02 05:34:54;;;;;;;;;;;31.60;62.00;;;;;;5038283;28;19921;-75
2022/12/02 05:37:21;;;;;;;;;;;31.90;62.10;;;;;;5045818;28;19947;-73
2022/12/02 05:39:48;;;;;;;;;;;32.40;61.00;;;;;;5058878;28;19909;-73
2022/12/02 05:42:14;;;;;;;;;;;32.30;62.00;;;;;;5055834;28;20477;-73
2022/12/02 05:44:44;;;;;;;;;;;32.40;62.60;;;;;;5057652;28;19944;-72
2022/12/02 05:47:15;;;;;;;;;;;32.40;61.80;;;;;;5043811;28;19923;-76
2022/12/02 05:49:43;;;;;;;;;;;32.40;61.80;;;;;;5044749;28;19959;-73
2022/12/02 05:52:18;;;;;;;;;;;32.00;61.40;;;;;;5046193;28;20934;-72
2022/12/02 05:54:45;;;;;;;;;;;30.80;63.70;;;;;;5037763;28;20362;-73
2022/12/02 05:57:12;;;;;;;;;;;30.10;64.80;;;;;;5052005;28;19952;-71
2022/12/02 05:59:39;;;;;;;;;;;29.60;66.50;;;;;;5047752;28;19959;-73
2022/12/02 06:02:18;;;;;;;;;;;29.30;67.80;;;;;;5052269;28;20299;-73
2022/12/02 06:04:45;;;;;;;;;;;28.90;67.40;;;;;;5056662;28;19912;-71
2022/12/02 06:07:13;;;;;;;;;;;28.70;68.20;;;;;;5055949;28;19912;-74
2022/12/02 06:09:39;;;;;;;;;;;28.40;68.20;;;;;;5057594;28;19912;-72
2022/12/02 06:12:11;;;;;;;;;;;28.20;69.00;;;;;;5056749;28;20007;-76
2022/12/02 06:14:38;;;;;;;;;;;27.70;69.50;;;;;;5057485;28;19917;-74
2022/12/02 06:17:14;;;;;;;;;;;27.80;69.00;;;;;;5049740;28;20007;-75
2022/12/02 06:19:52;;;;;;;;;;;27.30;69.20;;;;;;5056892;28;19995;-74
2022/12/02 06:22:22;;;;;;;;;;;27.10;71.00;;;;;;5036605;28;19908;-78
2022/12/02 06:24:48;;;;;;;;;;;27.10;70.90;;;;;;5037894;28;20404;-77
2022/12/02 06:27:15;;;;;;;;;;;26.80;71.90;;;;;;5036409;28;20451;-71
2022/12/02 06:29:48;;;;;;;;;;;26.70;72.10;;;;;;5050555;28;20010;-77
2022/12/02 06:32:26;;;;;;;;;;;26.70;72.80;;;;;;5056274;28;19995;-75
2022/12/02 06:34:52;;;;;;;;;;;26.80;72.60;;;;;;5054183;28;19920;-75
2022/12/02 06:37:21;;;;;;;;;;;27.00;72.20;;;;;;5055074;28;20007;-78
2022/12/02 06:39:52;;;;;;;;;;;27.00;71.80;;;;;;5056387;28;19909;-74
2022/12/02 06:42:30;;;;;;;;;;;26.90;71.80;;;;;;5039520;28;19913;-76
2022/12/02 06:45:03;;;;;;;;;;;27.00;72.20;;;;;;5046024;28;19908;-78
2022/12/02 06:47:32;;;;;;;;;;;27.10;71.60;;;;;;5055591;28;19912;-75
2022/12/02 06:50:05;;;;;;;;;;;27.00;71.20;;;;;;5044707;28;20387;-73
2022/12/02 06:52:37;;;;;;;;;;;26.80;71.00;;;;;;5044450;28;20404;-77
2022/12/02 06:55:10;;;;;;;;;;;26.40;71.20;;;;;;5057090;28;19916;-76
2022/12/02 06:57:37;;;;;;;;;;;25.90;73.70;;;;;;5050799;28;19912;-75
2022/12/02 07:00:04;;;;;;;;;;;25.70;74.10;;;;;;5043065;28;19913;-75
2022/12/02 07:02:31;;;;;;;;;;;25.40;75.50;;;;;;5048986;28;19912;-74
2022/12/02 07:04:59;;;;;;;;;;;25.20;75.00;;;;;;5054802;28;19919;-75
2022/12/02 07:07:30;;;;;;;;;;;25.10;75.70;;;;;;5055843;28;20006;-76
2022/12/02 07:09:58;;;;;;;;;;;25.30;75.90;;;;;;5050193;28;19920;-77
2022/12/02 07:12:36;;;;;;;;;;;25.20;76.90;;;;;;5039063;28;19962;-77
2022/12/02 07:15:16;;;;;;;;;;;25.10;78.50;;;;;;5046071;28;20281;-74
2022/12/02 07:17:43;;;;;;;;;;;24.90;77.80;;;;;;5056074;28;20364;-77
2022/12/02 07:20:12;;;;;;;;;;;24.70;77.90;;;;;;5056700;28;20258;-75
2022/12/02 07:22:48;;;;;;;;;;;24.50;78.80;;;;;;5053860;28;19920;-73
2022/12/02 07:25:24;;;;;;;;;;;24.30;78.60;;;;;;5056745;28;19928;-76
2022/12/02 07:27:51;;;;;;;;;;;24.20;79.30;;;;;;5054243;28;19993;-72
2022/12/02 07:30:30;;;;;;;;;;;23.90;81.90;;;;;;5056633;28;19916;-73
2022/12/02 07:32:56;;;;;;;;;;;23.90;82.30;;;;;;5055905;28;19909;-71
2022/12/02 07:35:23;;;;;;;;;;;24.00;82.30;;;;;;5055744;28;20288;-71
2022/12/02 07:37:50;;;;;;;;;;;24.00;82.80;;;;;;5056405;28;19920;-70
2022/12/02 07:40:17;;;;;;;;;;;24.00;82.20;;;;;;5049499;28;19917;-70
2022/12/02 07:42:44;;;;;;;;;;;23.70;82.50;;;;;;5036083;28;20009;-70
2022/12/02 07:45:12;;;;;;;;;;;23.70;83.30;;;;;;5045997;28;19908;-73
2022/12/02 07:47:39;;;;;;;;;;;23.50;84.40;;;;;;5053608;28;19912;-72
2022/12/02 07:50:06;;;;;;;;;;;23.40;87.70;;;;;;5054699;28;19916;-72
2022/12/02 07:52:32;;;;;;;;;;;23.20;90.10;;;;;;5050200;28;19915;-70
2022/12/02 07:55:00;;;;;;;;;;;23.10;90.80;;;;;;5047092;28;19921;-72
2022/12/02 07:57:27;;;;;;;;;;;23.00;91.30;;;;;;5053203;28;20285;-70
2022/12/02 07:59:54;;;;;;;;;;;23.00;91.40;;;;;;5055752;28;19908;-70
2022/12/02 08:02:20;;;;;;;;;;;22.80;91.60;;;;;;5056425;28;19919;-71
2022/12/02 08:04:47;;;;;;;;;;;22.60;91.70;;;;;;5049440;28;19923;-70
2022/12/02 08:07:14;;;;;;;;;;;22.40;92.50;;;;;;5043236;28;19912;-71
2022/12/02 08:09:40;;;;;;;;;;;22.20;92.90;;;;;;5054257;28;19912;-73
2022/12/02 08:12:07;;;;;;;;;;;22.10;93.20;;;;;;5043140;28;19912;-70
2022/12/02 08:14:34;;;;;;;;;;;21.90;93.70;;;;;;5051756;28;20299;-71
2022/12/02 08:17:00;;;;;;;;;;;21.80;94.20;;;;;;5053173;28;19920;-72
2022/12/02 08:19:27;;;;;;;;;;;21.80;94.40;;;;;;5049759;28;19951;-74
2022/12/02 08:21:53;;;;;;;;;;;21.70;94.40;;;;;;5044383;28;20636;-70
2022/12/02 08:24:20;;;;;;;;;;;21.60;94.10;;;;;;5045296;28;19960;-72
2022/12/02 08:26:47;;;;;;;;;;;21.50;93.90;;;;;;5042737;28;19938;-71
2022/12/02 08:29:13;;;;;;;;;;;21.40;94.20;;;;;;5055464;28;20399;-74
2022/12/02 08:31:40;;;;;;;;;;;21.40;94.50;;;;;;5054495;28;19915;-72
2022/12/02 08:34:06;;;;;;;;;;;21.30;94.50;;;;;;5052479;28;19916;-72
2022/12/02 08:36:33;;;;;;;;;;;21.20;94.80;;;;;;5045454;28;19956;-72
2022/12/02 08:39:04;;;;;;;;;;;21.20;95.00;;;;;;5056771;28;19919;-70
2022/12/02 08:41:31;;;;;;;;;;;21.20;95.10;;;;;;5054282;28;19934;-71
2022/12/02 08:43:58;;;;;;;;;;;21.10;95.10;;;;;;5054969;28;19918;-70
2022/12/02 08:46:26;;;;;;;;;;;21.10;95.20;;;;;;5039648;28;20075;-71
2022/12/02 08:48:53;;;;;;;;;;;21.00;95.10;;;;;;5053623;28;19931;-69
2022/12/02 08:51:20;;;;;;;;;;;20.90;95.30;;;;;;5054141;28;19912;-71
2022/12/02 08:53:47;;;;;;;;;;;20.80;95.60;;;;;;5053800;28;19920;-71
2022/12/02 08:56:13;;;;;;;;;;;20.80;96.00;;;;;;5054910;28;20010;-70
2022/12/02 08:58:40;;;;;;;;;;;20.80;96.20;;;;;;5052133;28;19912;-70
2022/12/02 09:01:07;;;;;;;;;;;20.70;96.40;;;;;;5053641;28;19908;-70
2022/12/02 09:03:33;;;;;;;;;;;20.70;96.50;;;;;;5054378;28;19908;-69
2022/12/02 09:06:00;;;;;;;;;;;20.60;96.70;;;;;;5056062;28;19912;-69
2022/12/02 09:08:27;;;;;;;;;;;20.60;96.90;;;;;;5056940;28;19909;-72
2022/12/02 09:10:53;;;;;;;;;;;20.60;96.90;;;;;;5053501;28;19913;-72
2022/12/02 09:13:20;;;;;;;;;;;20.50;97.00;;;;;;5045512;28;19987;-74
2022/12/02 09:15:47;;;;;;;;;;;20.50;97.20;;;;;;5053610;28;19946;-71
2022/12/02 09:18:13;;;;;;;;;;;20.50;97.30;;;;;;5057488;28;19909;-71
2022/12/02 09:20:40;;;;;;;;;;;20.50;97.50;;;;;;5037314;28;19917;-71
2022/12/02 09:23:06;;;;;;;;;;;20.40;97.60;;;;;;5038898;28;19982;-71
2022/12/02 09:25:33;;;;;;;;;;;20.50;97.80;;;;;;5051961;28;20384;-71
2022/12/02 09:28:00;;;;;;;;;;;20.50;97.70;;;;;;5057088;28;19912;-71
2022/12/02 09:30:26;;;;;;;;;;;20.40;97.80;;;;;;5055059;28;19919;-72
2022/12/02 09:32:53;;;;;;;;;;;20.40;97.70;;;;;;5048432;28;19927;-70
2022/12/02 09:35:20;;;;;;;;;;;20.50;97.60;;;;;;5056963;28;19928;-72
2022/12/02 09:37:46;;;;;;;;;;;20.50;97.70;;;;;;5055921;28;20100;-71
2022/12/02 09:40:13;;;;;;;;;;;20.50;97.30;;;;;;5057172;28;20254;-72
2022/12/02 09:42:40;;;;;;;;;;;20.40;96.80;;;;;;5055965;28;19951;-72
2022/12/02 09:45:07;;;;;;;;;;;20.40;96.70;;;;;;5039883;28;19912;-72
2022/12/02 09:47:34;;;;;;;;;;;20.30;96.20;;;;;;5042012;28;19916;-72
2022/12/02 09:50:00;;;;;;;;;;;20.30;95.80;;;;;;5057024;28;19912;-71
2022/12/02 09:52:28;;;;;;;;;;;20.30;95.30;;;;;;5051197;28;19919;-72
2022/12/02 09:54:56;;;;;;;;;;;20.30;95.20;;;;;;5056706;28;19952;-71
2022/12/02 09:57:28;;;;;;;;;;;20.20;95.30;;;;;;5057956;28;19909;-71
2022/12/02 09:59:55;;;;;;;;;;;20.20;95.60;;;;;;5040533;28;19917;-72
2022/12/02 10:02:22;;;;;;;;;;;20.10;95.50;;;;;;5057641;28;19961;-71
2022/12/02 10:04:48;;;;;;;;;;;20.00;95.70;;;;;;5056338;28;19951;-72
2022/12/02 10:07:15;;;;;;;;;;;19.90;95.80;;;;;;5057926;28;20420;-72
2022/12/02 10:09:41;;;;;;;;;;;20.00;96.10;;;;;;5057192;28;19916;-72
2022/12/02 10:12:10;;;;;;;;;;;19.90;96.10;;;;;;5056737;28;19908;-71
2022/12/02 10:14:37;;;;;;;;;;;19.90;96.30;;;;;;5053507;28;20018;-72
2022/12/02 10:17:15;;;;;;;;;;;20.00;96.50;;;;;;5037063;28;20070;-71
2022/12/02 10:19:41;;;;;;;;;;;19.90;96.30;;;;;;5057135;28;19931;-71
2022/12/02 10:22:13;;;;;;;;;;;20.00;96.50;;;;;;5055714;28;20051;-72
2022/12/02 10:24:43;;;;;;;;;;;20.00;96.80;;;;;;5056726;28;19927;-73
2022/12/02 10:27:22;;;;;;;;;;;19.90;96.70;;;;;;5038406;28;20689;-72
2022/12/02 10:29:49;;;;;;;;;;;19.90;96.90;;;;;;5056070;28;19919;-74
2022/12/02 10:32:26;;;;;;;;;;;19.80;97.20;;;;;;5055534;28;19935;-72
2022/12/02 10:35:01;;;;;;;;;;;19.80;97.40;;;;;;5049267;28;19925;-71
2022/12/02 10:37:28;;;;;;;;;;;19.80;97.50;;;;;;5041150;28;20315;-72
2022/12/02 10:40:14;;;;;;;;;;;19.60;97.50;;;;;;5055047;28;20242;-72
2022/12/02 10:42:42;;;;;;;;;;;19.60;97.90;;;;;;5056256;28;19920;-71
2022/12/02 10:45:15;;;;;;;;;;;19.50;97.90;;;;;;5051878;28;19913;-71
2022/12/02 10:47:41;;;;;;;;;;;19.50;98.10;;;;;;5044962;28;19909;-72
2022/12/02 10:50:20;;;;;;;;;;;19.50;98.30;;;;;;5055484;28;19915;-72
2022/12/02 10:52:51;;;;;;;;;;;19.50;98.20;;;;;;5056701;28;20281;-71
2022/12/02 10:55:19;;;;;;;;;;;19.50;98.60;;;;;;5056039;28;19928;-71
2022/12/02 10:57:46;;;;;;;;;;;19.60;98.80;;;;;;5055242;28;20402;-71
2022/12/02 11:00:15;;;;;;;;;;;19.50;98.80;;;;;;5042262;28;20349;-70
2022/12/02 11:02:45;;;;;;;;;;;19.50;99.20;;;;;;5036323;28;19909;-71
2022/12/02 11:05:20;;;;;;;;;;;19.40;99.50;;;;;;5045764;28;19913;-70
2022/12/02 11:07:55;;;;;;;;;;;19.40;99.90;;;;;;5054515;28;19920;-71
2022/12/02 11:10:23;;;;;;;;;;;19.40;99.90;;;;;;5056466;28;19908;-72
2022/12/02 11:12:53;;;;;;;;;;;19.40;99.90;;;;;;5047017;28;19917;-72
2022/12/02 11:15:37;;;;;;;;;;;19.40;99.90;;;;;;5036271;28;19916;-71
2022/12/02 11:18:05;;;;;;;;;;;19.40;99.90;;;;;;5050592;28;19917;-72
2022/12/02 11:20:35;;;;;;;;;;;19.40;99.90;;;;;;5056169;28;19920;-73
2022/12/02 11:23:01;;;;;;;;;;;19.40;99.90;;;;;;5054868;28;19912;-72
2022/12/02 11:25:43;;;;;;;;;;;19.40;99.90;;;;;;5056321;28;19912;-71
2022/12/02 11:28:28;;;;;;;;;;;19.40;99.90;;;;;;5054452;28;19966;-73
2022/12/02 11:31:10;;;;;;;;;;;19.40;99.90;;;;;;5055844;28;20422;-73
2022/12/02 11:33:42;;;;;;;;;;;19.40;99.90;;;;;;5053515;28;19979;-72
2022/12/02 11:36:10;;;;;;;;;;;19.40;99.90;;;;;;5038098;28;20007;-72
2022/12/02 11:38:47;;;;;;;;;;;19.40;99.90;;;;;;5054434;28;20510;-71
2022/12/02 11:41:14;;;;;;;;;;;19.40;99.90;;;;;;5055021;28;19944;-71
2022/12/02 11:43:41;;;;;;;;;;;19.40;99.90;;;;;;5055768;28;19920;-71
2022/12/02 11:46:07;;;;;;;;;;;19.30;99.90;;;;;;5053696;28;19909;-73
2022/12/02 11:48:43;;;;;;;;;;;19.30;99.90;;;;;;5054847;28;20003;-72
2022/12/02 11:51:27;;;;;;;;;;;19.30;99.90;;;;;;5052763;28;19909;-71
2022/12/02 11:53:54;;;;;;;;;;;19.30;99.90;;;;;;5054810;28;20383;-71
2022/12/02 11:56:21;;;;;;;;;;;19.30;99.90;;;;;;5054428;28;19924;-70
2022/12/02 11:58:48;;;;;;;;;;;19.40;99.90;;;;;;5055903;28;19938;-72
2022/12/02 12:01:17;;;;;;;;;;;19.30;99.90;;;;;;5054586;28;20355;-72
2022/12/02 12:03:45;;;;;;;;;;;19.30;99.90;;;;;;5056377;28;20406;-71
2022/12/02 12:06:13;;;;;;;;;;;19.20;99.90;;;;;;5053796;28;19942;-71
2022/12/02 12:08:45;;;;;;;;;;;19.20;99.90;;;;;;5055240;28;19917;-70
2022/12/02 12:11:20;;;;;;;;;;;19.10;99.90;;;;;;5053887;28;19909;-70
2022/12/02 12:14:05;;;;;;;;;;;19.00;99.90;;;;;;5056294;28;19919;-72
2022/12/02 12:16:34;;;;;;;;;;;19.00;99.90;;;;;;5036875;28;20408;-72
2022/12/02 12:19:23;;;;;;;;;;;19.00;99.90;;;;;;5055731;28;20369;-71
2022/12/02 12:21:53;;;;;;;;;;;19.00;99.90;;;;;;5051864;28;20003;-73
2022/12/02 12:24:20;;;;;;;;;;;19.00;99.90;;;;;;5054407;28;19920;-71
2022/12/02 12:27:10;;;;;;;;;;;18.90;99.90;;;;;;5055724;28;19916;-71
2022/12/02 12:29:38;;;;;;;;;;;18.90;99.90;;;;;;5055896;28;19956;-71
2022/12/02 12:32:05;;;;;;;;;;;18.80;99.90;;;;;;5054845;28;20556;-72
2022/12/02 12:34:32;;;;;;;;;;;18.70;99.90;;;;;;5054954;28;20422;-71
2022/12/02 12:36:59;;;;;;;;;;;18.80;99.90;;;;;;5054905;28;20011;-71
2022/12/02 12:39:26;;;;;;;;;;;18.70;99.90;;;;;;5057893;28;19920;-71
2022/12/02 12:41:52;;;;;;;;;;;18.70;99.90;;;;;;5042656;28;20302;-70
2022/12/02 12:44:19;;;;;;;;;;;18.60;99.90;;;;;;5040934;28;20281;-71
2022/12/02 12:46:45;;;;;;;;;;;18.60;99.90;;;;;;5059146;28;20086;-71
2022/12/02 12:49:12;;;;;;;;;;;18.60;99.90;;;;;;5057521;28;20003;-71
2022/12/02 12:51:39;;;;;;;;;;;18.50;99.90;;;;;;5059447;28;19916;-71
2022/12/02 12:54:05;;;;;;;;;;;18.40;99.90;;;;;;5040362;28;19909;-71
2022/12/02 12:56:32;;;;;;;;;;;18.50;99.90;;;;;;5057537;28;19940;-71
2022/12/02 12:58:59;;;;;;;;;;;18.40;99.90;;;;;;5058669;28;19913;-72
2022/12/02 13:01:25;;;;;;;;;;;18.40;99.90;;;;;;5057946;28;20304;-71
2022/12/02 13:03:52;;;;;;;;;;;18.40;99.90;;;;;;5059345;28;19912;-70
2022/12/02 13:06:19;;;;;;;;;;;18.30;99.90;;;;;;5057041;28;19919;-71
2022/12/02 13:08:46;;;;;;;;;;;18.30;99.90;;;;;;5058901;28;19908;-72
2022/12/02 13:11:12;;;;;;;;;;;18.30;99.90;;;;;;5058366;28;19955;-71
2022/12/02 13:13:39;;;;;;;;;;;18.30;99.90;;;;;;5058561;28;19948;-70
2022/12/02 13:16:06;;;;;;;;;;;18.20;99.90;;;;;;5057359;28;20846;-71
2022/12/02 13:18:32;;;;;;;;;;;18.20;99.90;;;;;;5057390;28;19919;-70
2022/12/02 13:20:59;;;;;;;;;;;18.20;99.90;;;;;;5060188;28;19995;-70
2022/12/02 13:23:26;;;;;;;;;;;18.20;99.90;;;;;;5055203;28;19963;-70
2022/12/02 13:25:52;;;;;;;;;;;18.20;99.90;;;;;;5059276;28;19920;-69
2022/12/02 13:28:19;;;;;;;;;;;18.10;99.90;;;;;;5056688;28;19909;-72
2022/12/02 13:30:45;;;;;;;;;;;18.10;99.90;;;;;;5059094;28;19912;-70
2022/12/02 13:33:12;;;;;;;;;;;18.00;99.90;;;;;;5055991;28;19992;-70
2022/12/02 13:35:39;;;;;;;;;;;18.00;99.90;;;;;;5056284;28;20706;-70
2022/12/02 13:38:05;;;;;;;;;;;17.90;99.90;;;;;;5054447;28;19912;-72
2022/12/02 13:40:32;;;;;;;;;;;17.90;99.90;;;;;;5056727;28;19962;-70
2022/12/02 13:42:59;;;;;;;;;;;17.90;99.90;;;;;;5049316;28;19924;-70
2022/12/02 13:45:26;;;;;;;;;;;17.90;99.90;;;;;;5048062;28;19977;-71
2022/12/02 13:47:53;;;;;;;;;;;17.80;99.90;;;;;;5058616;28;20311;-72
2022/12/02 13:50:20;;;;;;;;;;;17.80;99.90;;;;;;5057290;28;19916;-72
2022/12/02 13:52:46;;;;;;;;;;;17.70;99.90;;;;;;5058521;28;19991;-71
2022/12/02 13:55:13;;;;;;;;;;;17.70;99.90;;;;;;5057801;28;19916;-69
2022/12/02 13:57:40;;;;;;;;;;;17.80;99.90;;;;;;5055673;28;19908;-70
2022/12/02 14:00:07;;;;;;;;;;;17.70;99.90;;;;;;5058800;28;20267;-72
2022/12/02 14:02:33;;;;;;;;;;;17.70;99.90;;;;;;5056458;28;19916;-70
2022/12/02 14:05:00;;;;;;;;;;;17.70;99.90;;;;;;5058176;28;19919;-71
2022/12/02 14:07:26;;;;;;;;;;;17.60;99.90;;;;;;5044801;28;19908;-72
2022/12/02 14:09:53;;;;;;;;;;;17.60;99.90;;;;;;5058697;28;20006;-71
2022/12/02 14:12:20;;;;;;;;;;;17.50;99.90;;;;;;5056746;28;20018;-71
2022/12/02 14:14:46;;;;;;;;;;;17.50;99.90;;;;;;5056167;28;19942;-71
2022/12/02 14:17:13;;;;;;;;;;;17.60;99.90;;;;;;5052512;28;19924;-71
2022/12/02 14:19:39;;;;;;;;;;;17.50;99.90;;;;;;5035413;28;19962;-72
2022/12/02 14:22:06;;;;;;;;;;;17.50;99.90;;;;;;5039270;28;19909;-71
2022/12/02 14:24:33;;;;;;;;;;;17.40;99.90;;;;;;5035387;28;19921;-70